createdAt,value
2019-01-31T04:16:24.463Z,99.90
2019-01-31T04:18:53.549Z,99.90
2019-01-31T04:21:22.564Z,99.90
2019-01-31T04:23:51.737Z,99.90
2019-01-31T04:26:20.843Z,99.90
2019-01-31T04:28:49.833Z,99.90
2019-01-31T04:31:19.046Z,99.90
2019-01-31T04:33:48.328Z,99.90
2019-01-31T04:36:17.413Z,99.90
2019-01-31T04:38:46.500Z,99.90
2019-01-31T04:41:15.571Z,99.90
2019-01-31T04:43:44.585Z,99.90
2019-01-31T04:46:13.682Z,99.90
2019-01-31T04:48:42.595Z,99.90
2019-01-31T04:51:11.506Z,99.90
2019-01-31T04:53:40.614Z,99.90
2019-01-31T04:56:09.648Z,99.90
2019-01-31T04:58:38.696Z,99.90
2019-01-31T05:01:07.883Z,99.90
2019-01-31T05:03:36.870Z,99.90
2019-01-31T05:06:05.950Z,99.90
2019-01-31T05:08:35.031Z,99.90
2019-01-31T05:11:04.162Z,99.90
2019-01-31T05:13:33.333Z,99.90
2019-01-31T05:16:03.820Z,99.90
2019-01-31T05:18:33.137Z,99.90
2019-01-31T05:21:02.278Z,99.90
2019-01-31T05:23:31.371Z,99.90
2019-01-31T05:26:00.291Z,99.90
2019-01-31T05:28:29.297Z,99.90
2019-01-31T05:30:58.544Z,99.90
2019-01-31T05:33:27.623Z,99.90
2019-01-31T05:35:56.627Z,99.90
2019-01-31T05:38:25.587Z,99.90
2019-01-31T05:40:55.963Z,99.90
2019-01-31T05:43:25.186Z,99.90
2019-01-31T05:45:54.230Z,99.90
2019-01-31T05:48:23.326Z,99.90
2019-01-31T05:50:52.479Z,99.90
2019-01-31T05:53:21.494Z,99.90
2019-01-31T05:55:50.680Z,99.90
2019-01-31T05:58:19.736Z,99.90
2019-01-31T06:00:48.769Z,99.90
2019-01-31T06:03:17.997Z,99.90
2019-01-31T06:05:47.245Z,99.90
2019-01-31T06:08:16.293Z,99.90
2019-01-31T06:10:45.286Z,99.90
2019-01-31T06:13:14.196Z,99.90
2019-01-31T06:15:43.295Z,99.90
2019-01-31T06:18:12.399Z,99.90
2019-01-31T06:20:41.396Z,99.90
2019-01-31T06:23:10.456Z,99.90
2019-01-31T06:25:39.430Z,99.90
2019-01-31T06:28:08.564Z,99.90
2019-01-31T06:30:37.635Z,99.90
2019-01-31T06:33:06.709Z,99.90
2019-01-31T06:35:35.840Z,99.90
2019-01-31T06:38:05.026Z,99.90
2019-01-31T06:40:34.458Z,99.90
2019-01-31T06:43:03.607Z,99.90
2019-01-31T06:45:32.673Z,99.90
2019-01-31T06:48:01.665Z,99.90
2019-01-31T06:50:30.733Z,99.90
2019-01-31T06:52:59.764Z,99.90
2019-01-31T06:55:29.002Z,99.90
2019-01-31T06:57:57.925Z,99.90
2019-01-31T07:00:27.011Z,99.90
2019-01-31T07:02:56.009Z,99.90
2019-01-31T07:05:24.997Z,99.90
2019-01-31T07:07:54.290Z,99.90
2019-01-31T07:10:25.288Z,99.90
2019-01-31T07:12:54.477Z,99.90
2019-01-31T07:15:23.791Z,99.90
2019-01-31T07:17:53.134Z,99.90
2019-01-31T07:20:22.155Z,99.90
2019-01-31T07:22:51.223Z,99.90
2019-01-31T07:25:22.223Z,99.90
2019-01-31T07:27:51.292Z,99.90
2019-01-31T07:30:20.762Z,99.90
2019-01-31T07:32:49.892Z,99.90
2019-01-31T07:35:19.036Z,99.90
2019-01-31T07:37:48.391Z,99.90
2019-01-31T07:40:19.050Z,99.90
2019-01-31T07:42:48.174Z,99.90
2019-01-31T07:45:22.687Z,99.90
2019-01-31T07:47:51.979Z,99.90
2019-01-31T07:50:21.046Z,99.90
2019-01-31T07:52:50.456Z,99.90
2019-01-31T07:55:19.936Z,99.90
2019-01-31T07:57:49.054Z,99.90
2019-01-31T08:00:18.627Z,99.90
2019-01-31T08:02:47.670Z,99.90
2019-01-31T08:05:18.542Z,99.90
2019-01-31T08:07:48.834Z,99.90
2019-01-31T08:10:20.726Z,99.90
2019-01-31T08:12:51.422Z,99.90
2019-01-31T08:15:20.848Z,99.90
2019-01-31T08:17:49.923Z,99.90
2019-01-31T08:20:19.054Z,99.90
2019-01-31T08:22:48.090Z,99.90
2019-01-31T08:25:18.875Z,99.90
2019-01-31T08:27:48.229Z,99.90
2019-01-31T08:30:19.832Z,99.90
2019-01-31T08:32:48.822Z,99.90
2019-01-31T08:35:18.146Z,99.90
2019-01-31T08:37:47.200Z,99.90
2019-01-31T08:40:16.257Z,99.90
2019-01-31T08:42:45.234Z,99.90
2019-01-31T08:45:14.354Z,99.80
2019-01-31T08:47:43.531Z,99.90
2019-01-31T08:50:20.654Z,99.90
2019-01-31T08:52:49.708Z,99.90
2019-01-31T08:55:18.796Z,99.90
2019-01-31T08:57:48.228Z,99.90
2019-01-31T09:00:19.498Z,99.90
2019-01-31T09:02:48.638Z,99.90
2019-01-31T09:05:17.811Z,99.90
2019-01-31T09:07:46.882Z,99.90
2019-01-31T09:10:18.207Z,99.90
2019-01-31T09:12:47.214Z,99.20
2019-01-31T09:15:18.387Z,98.00
2019-01-31T09:17:47.549Z,98.50
2019-01-31T09:20:18.506Z,97.00
2019-01-31T09:23:04.429Z,96.30
2019-01-31T09:26:13.073Z,95.90
2019-01-31T09:29:29.216Z,95.40
2019-01-31T09:32:57.386Z,95.20
2019-01-31T09:36:00.899Z,95.50
2019-01-31T09:39:14.269Z,94.40
2019-01-31T09:42:11.942Z,93.70
2019-01-31T09:45:06.437Z,93.60
2019-01-31T09:48:12.197Z,92.80
2019-01-31T09:50:54.865Z,92.70
2019-01-31T09:53:55.474Z,92.50
2019-01-31T09:57:20.416Z,92.60
2019-01-31T10:00:27.691Z,92.20
2019-01-31T10:03:16.567Z,92.50
2019-01-31T10:06:39.581Z,90.90
2019-01-31T10:09:16.949Z,88.20
2019-01-31T10:12:23.348Z,85.40
2019-01-31T10:15:07.469Z,84.20
2019-01-31T10:18:21.007Z,84.60
2019-01-31T10:21:25.615Z,84.30
2019-01-31T10:24:19.448Z,85.50
2019-01-31T10:27:34.230Z,81.10
2019-01-31T10:30:26.195Z,79.70
2019-01-31T10:33:21.613Z,77.20
2019-01-31T10:36:20.018Z,77.20
2019-01-31T10:39:25.846Z,74.30
2019-01-31T10:42:35.884Z,76.30
2019-01-31T10:45:34.323Z,77.80
2019-01-31T10:48:47.174Z,79.60
2019-01-31T10:51:51.601Z,77.30
2019-01-31T10:55:10.954Z,76.90
2019-01-31T10:58:21.130Z,74.40
2019-01-31T11:01:18.078Z,75.00
2019-01-31T11:04:31.654Z,78.30
2019-01-31T11:07:52.502Z,80.70
2019-01-31T11:10:58.487Z,84.40
2019-01-31T11:13:54.884Z,86.70
2019-01-31T11:17:14.046Z,84.70
2019-01-31T11:19:58.028Z,87.00
2019-01-31T11:22:48.546Z,85.70
2019-01-31T11:26:07.490Z,85.50
2019-01-31T11:29:20.377Z,87.40
2019-01-31T11:32:27.775Z,87.80
2019-01-31T11:35:52.938Z,88.30
2019-01-31T11:38:43.549Z,87.50
2019-01-31T11:41:41.602Z,87.10
2019-01-31T11:45:12.055Z,88.90
2019-01-31T11:48:01.823Z,87.00
2019-01-31T11:51:04.080Z,86.10
2019-01-31T11:53:50.605Z,86.20
2019-01-31T11:57:04.579Z,87.60
2019-01-31T11:59:24.273Z,86.40
2019-01-31T12:01:53.329Z,85.70
2019-01-31T12:04:22.326Z,85.00
2019-01-31T12:06:51.434Z,87.10
2019-01-31T12:09:21.781Z,85.20
2019-01-31T12:11:51.589Z,85.20
2019-01-31T12:14:20.754Z,86.20
2019-01-31T12:16:49.977Z,86.50
2019-01-31T12:19:19.064Z,84.30
2019-01-31T12:21:48.241Z,84.70
2019-01-31T12:24:17.451Z,84.40
2019-01-31T12:26:46.443Z,82.80
2019-01-31T12:29:15.436Z,82.20
2019-01-31T12:31:44.439Z,83.50
2019-01-31T12:34:13.498Z,80.60
2019-01-31T12:36:42.779Z,82.00
2019-01-31T12:39:12.174Z,83.20
2019-01-31T12:41:41.201Z,83.50
2019-01-31T12:44:10.308Z,84.00
2019-01-31T12:46:39.313Z,82.40
2019-01-31T12:49:08.394Z,81.30
2019-01-31T12:51:37.575Z,80.30
2019-01-31T12:54:06.675Z,81.00
2019-01-31T12:56:35.753Z,80.60
2019-01-31T12:59:04.927Z,79.80
2019-01-31T13:01:33.930Z,81.40
2019-01-31T13:04:03.017Z,79.50
2019-01-31T13:06:32.175Z,80.20
2019-01-31T13:09:01.172Z,79.40
2019-01-31T13:11:30.228Z,78.40
2019-01-31T13:13:59.318Z,78.20
2019-01-31T13:16:29.631Z,78.40
2019-01-31T13:18:58.705Z,78.40
2019-01-31T13:21:27.722Z,80.30
2019-01-31T13:23:56.815Z,80.70
2019-01-31T13:26:25.865Z,81.40
2019-01-31T13:28:54.980Z,80.70
2019-01-31T13:31:24.133Z,80.00
2019-01-31T13:33:53.190Z,80.50
2019-01-31T13:36:22.582Z,79.40
2019-01-31T13:38:51.655Z,81.40
2019-01-31T13:41:20.819Z,81.40
2019-01-31T13:43:57.315Z,81.50
2019-01-31T13:46:20.786Z,80.80
2019-01-31T13:48:51.555Z,82.00
2019-01-31T13:51:20.678Z,82.80
2019-01-31T13:53:50.107Z,82.00
2019-01-31T13:56:19.181Z,82.80
2019-01-31T13:58:48.115Z,83.50
2019-01-31T14:01:17.189Z,82.90
2019-01-31T14:03:46.255Z,85.10
2019-01-31T14:06:15.353Z,85.80
2019-01-31T14:08:44.420Z,85.80
2019-01-31T14:11:13.465Z,86.10
2019-01-31T14:13:42.423Z,87.20
2019-01-31T14:16:11.546Z,87.10
2019-01-31T14:18:40.544Z,87.80
2019-01-31T14:21:09.640Z,88.60
2019-01-31T14:23:38.652Z,87.60
2019-01-31T14:26:07.953Z,87.70
2019-01-31T14:28:37.154Z,87.60
2019-01-31T14:31:06.203Z,87.80
2019-01-31T14:33:35.415Z,89.00
2019-01-31T14:36:04.847Z,87.40
2019-01-31T14:38:33.921Z,87.70
2019-01-31T14:41:03.020Z,88.50
2019-01-31T14:43:32.108Z,87.70
2019-01-31T14:46:01.022Z,87.80
2019-01-31T14:48:30.025Z,88.10
2019-01-31T14:50:59.237Z,88.50
2019-01-31T14:53:28.218Z,88.40
2019-01-31T14:55:57.482Z,88.40
2019-01-31T14:58:26.663Z,88.60
2019-01-31T15:00:55.663Z,88.90
2019-01-31T15:03:24.683Z,89.30
2019-01-31T15:05:53.842Z,89.60
2019-01-31T15:08:22.742Z,90.00
2019-01-31T15:10:51.739Z,90.30
2019-01-31T15:13:20.867Z,90.30
2019-01-31T15:15:49.991Z,90.40
2019-01-31T15:18:19.126Z,90.80
2019-01-31T15:20:48.136Z,90.80
2019-01-31T15:23:17.119Z,91.30
2019-01-31T15:25:46.196Z,91.10
2019-01-31T15:28:15.273Z,90.90
2019-01-31T15:30:44.408Z,90.90
2019-01-31T15:33:14.236Z,91.50
2019-01-31T15:35:43.976Z,91.50
2019-01-31T15:38:13.023Z,91.60
2019-01-31T15:40:45.040Z,91.70
2019-01-31T15:43:14.316Z,91.90
2019-01-31T15:45:43.762Z,92.40
2019-01-31T15:48:13.201Z,92.40
2019-01-31T15:50:42.262Z,93.00
2019-01-31T15:53:11.356Z,93.10
2019-01-31T15:55:40.704Z,93.10
2019-01-31T15:58:11.194Z,93.30
2019-01-31T16:00:43.900Z,93.40
2019-01-31T16:03:21.278Z,93.20
2019-01-31T16:05:51.030Z,93.40
2019-01-31T16:08:20.202Z,93.70
2019-01-31T16:10:49.315Z,93.90
2019-01-31T16:13:18.427Z,94.20
2019-01-31T16:15:47.813Z,94.50
2019-01-31T16:18:17.150Z,94.60
2019-01-31T16:20:46.247Z,94.50
2019-01-31T16:23:16.003Z,94.30
2019-01-31T16:25:47.787Z,94.40
2019-01-31T16:28:16.747Z,94.80
2019-01-31T16:30:45.812Z,94.70
2019-01-31T16:33:14.934Z,94.70
2019-01-31T16:35:44.790Z,95.20
2019-01-31T16:38:13.892Z,95.20
2019-01-31T16:40:43.037Z,95.10
2019-01-31T16:43:12.086Z,95.80
2019-01-31T16:45:41.190Z,95.70
2019-01-31T16:48:10.555Z,95.80
2019-01-31T16:50:39.621Z,95.70
2019-01-31T16:53:09.581Z,95.70
2019-01-31T16:55:38.737Z,95.60
2019-01-31T16:58:08.436Z,95.60
2019-01-31T17:00:37.699Z,96.10
2019-01-31T17:03:07.253Z,95.70
2019-01-31T17:05:36.615Z,95.70
2019-01-31T17:08:06.894Z,96.00
2019-01-31T17:10:36.087Z,96.50
2019-01-31T17:13:05.737Z,96.60
2019-01-31T17:15:35.033Z,96.60
2019-01-31T17:18:05.711Z,96.60
2019-01-31T17:20:37.390Z,96.70
2019-01-31T17:23:06.603Z,96.70
2019-01-31T17:25:35.751Z,96.80
2019-01-31T17:28:05.763Z,97.20
2019-01-31T17:30:35.477Z,97.70
2019-01-31T17:33:04.818Z,97.60
2019-01-31T17:35:33.907Z,97.80
2019-01-31T17:38:03.047Z,98.10
2019-01-31T17:40:34.699Z,98.10
2019-01-31T17:43:03.766Z,98.10
2019-01-31T17:45:32.761Z,98.40
2019-01-31T17:48:01.871Z,98.20
2019-01-31T17:50:31.021Z,98.20
2019-01-31T17:53:00.001Z,98.30
2019-01-31T17:55:29.182Z,98.40
2019-01-31T17:57:58.265Z,98.30
2019-01-31T18:00:51.652Z,98.90
2019-01-31T18:03:20.767Z,99.00
2019-01-31T18:05:49.933Z,98.80
2019-01-31T18:08:19.241Z,99.10
2019-01-31T18:10:48.286Z,99.10
2019-01-31T18:13:17.356Z,99.20
2019-01-31T18:15:46.461Z,99.20
2019-01-31T18:18:15.625Z,99.10
2019-01-31T18:20:44.635Z,99.20
2019-01-31T18:23:13.730Z,99.30
2019-01-31T18:25:42.958Z,99.30
2019-01-31T18:28:12.555Z,99.60
2019-01-31T18:30:41.903Z,99.90
2019-01-31T18:33:10.830Z,99.90
2019-01-31T18:35:39.895Z,99.90
2019-01-31T18:38:09.038Z,99.80
2019-01-31T18:40:38.127Z,99.60
2019-01-31T18:43:07.359Z,99.60
2019-01-31T18:45:36.521Z,99.80
2019-01-31T18:48:05.899Z,99.90
2019-01-31T18:50:36.934Z,99.90
2019-01-31T18:53:06.292Z,99.90
2019-01-31T18:55:35.392Z,99.80
2019-01-31T18:58:04.772Z,99.80
2019-01-31T19:00:50.301Z,99.60
2019-01-31T19:03:19.745Z,99.80
2019-01-31T19:05:48.927Z,99.50
2019-01-31T19:08:18.028Z,99.50
2019-01-31T19:10:47.006Z,99.40
2019-01-31T19:13:15.988Z,99.50
2019-01-31T19:15:46.524Z,99.20
2019-01-31T19:18:15.849Z,99.10
2019-01-31T19:20:44.910Z,99.10
2019-01-31T19:23:14.074Z,99.10
2019-01-31T19:25:43.203Z,99.10
2019-01-31T19:28:13.240Z,99.10
2019-01-31T19:30:42.526Z,99.10
2019-01-31T19:33:11.620Z,99.30
2019-01-31T19:35:40.723Z,99.50
2019-01-31T19:38:10.626Z,99.80
2019-01-31T19:40:42.016Z,99.70
2019-01-31T19:43:11.144Z,99.70
2019-01-31T19:45:42.619Z,99.90
2019-01-31T19:48:12.131Z,99.90
2019-01-31T19:50:43.421Z,99.90
2019-01-31T19:53:12.271Z,99.90
2019-01-31T19:55:41.611Z,99.90
2019-01-31T19:58:10.777Z,99.90
2019-01-31T20:00:40.303Z,99.90
2019-01-31T20:03:09.640Z,99.90
2019-01-31T20:05:38.890Z,99.90
2019-01-31T20:08:10.023Z,99.90
2019-01-31T20:10:39.377Z,99.90
2019-01-31T20:13:08.637Z,99.90
2019-01-31T20:15:37.654Z,99.90
2019-01-31T20:18:07.180Z,99.90
2019-01-31T20:20:36.363Z,99.90
2019-01-31T20:23:06.615Z,99.90
2019-01-31T20:25:35.703Z,99.90
2019-01-31T20:28:05.008Z,99.90
2019-01-31T20:30:34.443Z,99.90
2019-01-31T20:33:04.223Z,99.90
2019-01-31T20:35:33.829Z,99.90
2019-01-31T20:38:03.881Z,99.90
2019-01-31T20:40:35.421Z,99.90
2019-01-31T20:43:06.012Z,99.90
2019-01-31T20:45:35.170Z,99.90
2019-01-31T20:48:04.850Z,99.90
2019-01-31T20:50:35.264Z,99.90
2019-01-31T20:53:05.204Z,99.90
2019-01-31T20:55:34.485Z,99.90
2019-01-31T20:58:03.934Z,99.90
2019-01-31T21:00:35.548Z,99.90
2019-01-31T21:03:05.394Z,99.90
2019-01-31T21:05:34.815Z,99.90
2019-01-31T21:08:04.180Z,99.90
2019-01-31T21:10:33.340Z,99.90
2019-01-31T21:13:02.507Z,99.90
2019-01-31T21:15:31.595Z,99.90
2019-01-31T21:18:00.731Z,99.90
2019-01-31T21:20:29.737Z,99.90
2019-01-31T21:22:58.835Z,99.90
2019-01-31T21:25:28.072Z,99.90
2019-01-31T21:27:57.149Z,99.90
2019-01-31T21:30:35.422Z,99.90
2019-01-31T21:33:05.124Z,99.90
2019-01-31T21:35:34.575Z,99.90
2019-01-31T21:38:03.684Z,99.90
2019-01-31T21:40:34.333Z,99.90
2019-01-31T21:43:04.129Z,99.90
2019-01-31T21:45:33.565Z,99.90
2019-01-31T21:48:02.711Z,99.90
2019-01-31T21:50:31.956Z,99.90
2019-01-31T21:53:01.103Z,99.90
2019-01-31T21:55:30.232Z,99.90
2019-01-31T21:57:59.388Z,99.90
2019-01-31T22:00:30.389Z,99.90
2019-01-31T22:02:59.588Z,99.90
2019-01-31T22:05:28.969Z,99.90
2019-01-31T22:07:58.251Z,99.90
2019-01-31T22:10:27.315Z,99.90
2019-01-31T22:12:56.387Z,99.90
2019-01-31T22:15:27.659Z,99.90
2019-01-31T22:18:00.015Z,99.90
2019-01-31T22:20:27.569Z,99.90
2019-01-31T22:22:56.646Z,99.90
2019-01-31T22:25:25.969Z,99.90
2019-01-31T22:27:55.143Z,99.90
2019-01-31T22:30:26.391Z,99.90
2019-01-31T22:32:55.490Z,99.90
2019-01-31T22:35:45.873Z,99.90
2019-01-31T22:38:14.947Z,99.90
2019-01-31T22:40:44.017Z,99.90
2019-01-31T22:43:13.214Z,99.90
2019-01-31T22:45:42.280Z,99.90
2019-01-31T22:48:11.654Z,99.90
2019-01-31T22:50:40.761Z,99.90
2019-01-31T22:53:09.815Z,99.90
2019-01-31T22:55:38.969Z,99.90
2019-01-31T22:58:08.169Z,99.90
2019-01-31T23:00:57.405Z,99.90
2019-01-31T23:03:26.577Z,99.90
2019-01-31T23:05:55.594Z,99.90
2019-01-31T23:08:24.711Z,99.90
2019-01-31T23:10:53.866Z,99.90
2019-01-31T23:13:22.923Z,99.90
2019-01-31T23:15:52.003Z,99.90
2019-01-31T23:18:21.074Z,99.90
2019-01-31T23:20:50.110Z,99.90
2019-01-31T23:23:19.254Z,99.90
2019-01-31T23:25:48.279Z,99.90
2019-01-31T23:28:17.453Z,99.90
